This is the latest recevied weather packets stored in our database for station/object OE-11061. If no packets are shown the sender has not sent any weather packets the latest 10 day(s).
| Time | Temp. | Humidity | Pressure | Rain* | Wind** | Luminosity | Snow |
|---|---|---|---|---|---|---|---|
| 1788243321 | 15° C | 85% | 1022.4 hPa | 0 mm | - | 217 W/m² | - |
| 1788242722 | 14.44° C | 85% | 1022.4 hPa | 0 mm | - | 90 W/m² | - |
| 1788242122 | 14.44° C | 86% | 1022.2 hPa | 0 mm | - | 60 W/m² | - |
| 1788241522 | 13.89° C | 85% | 1022.2 hPa | 0 mm | - | 52 W/m² | - |
| 1788240922 | 13.89° C | 85% | 1022.2 hPa | 0 mm | - | 45 W/m² | - |
| 1788240322 | 13.33° C | 87% | 1022.2 hPa | 0 mm | - | 37 W/m² | - |
| 1788239722 | 13.33° C | 86% | 1022.2 hPa | 0 mm | - | 30 W/m² | - |
| 1788239122 | 13.33° C | 86% | 1022.1 hPa | 0 mm | - | 22 W/m² | - |
| 1788238522 | 12.78° C | 86% | 1022.1 hPa | 0 mm | - | 7 W/m² | - |
| 1788237922 | 13.33° C | 86% | 1022 hPa | 0 mm | - | 7 W/m² | - |
| 1788237322 | 13.33° C | 86% | 1022.1 hPa | 0 mm | - | 0 W/m² | - |
| 1788236722 | 13.89° C | 85% | 1022.1 hPa | 0 mm | - | 0 W/m² | - |
| 1788236122 | 13.89° C | 84% | 1022.1 hPa | 0 mm | - | 0 W/m² | - |
| 1788222323 | 14.44° C | 83% | 1021.8 hPa | 0 mm | - | 0 W/m² | - |
| 1788221722 | 15° C | 82% | 1021.7 hPa | 0 mm | - | 0 W/m² | - |
| 1788220522 | 15° C | 81% | 1021.5 hPa | 0 mm | - | 0 W/m² | - |
| 1788215722 | 16.67° C | 80% | 1020.6 hPa | 0 mm | - | 0 W/m² | - |
| 1788215122 | 17.22° C | 76% | 1020.5 hPa | 0 mm | - | 0 W/m² | - |
| 1788214522 | 17.22° C | 75% | 1020.3 hPa | 0 mm | - | 0 W/m² | - |
| 1788213322 | 16.67° C | 74% | 1020.3 hPa | 0 mm | - | 0 W/m² | - |
| 1788212722 | 17.22° C | 73% | 1020 hPa | 0 mm | - | 0 W/m² | - |
| 1788212122 | 16.67° C | 71% | 1019.8 hPa | 0 mm | - | 0 W/m² | - |
| 1788211522 | 16.67° C | 75% | 1019.7 hPa | 0 mm | - | 0 W/m² | - |
| 1788210922 | 17.22° C | 71% | 1019.4 hPa | 0 mm | - | 0 W/m² | - |
| 1788210322 | 17.22° C | 72% | 1019.4 hPa | 0 mm | - | 0 W/m² | - |
* Rain latest hour (hover to see other rain measurements)
** Current wind speed in m/s (hover to see current wind gust speed)